Time;durP1;ratioP1;P1;durP2;ratioP2;P2;SDS_P1;SDS_P2;PMS_P1;PMS_P2;Temp;Humidity;BMP_temperature;BMP_pressure;BME280_temperature;BME280_humidity;BME280_pressure;Samples;Min_cycle;Max_cycle;Signal;HPM_P1;HPM_P2
2022/10/12 00:02:06;;;;;;;7.72;4.88;;;6.60;99.90;;;;;;4933458;28;20047;-77
2022/10/12 00:04:31;;;;;;;9.55;5.38;;;6.60;99.90;;;;;;4934457;29;20044;-77
2022/10/12 00:06:57;;;;;;;11.60;5.90;;;6.60;99.90;;;;;;4937095;29;20031;-77
2022/10/12 00:09:23;;;;;;;7.72;5.65;;;6.50;99.90;;;;;;4938485;29;20362;-77
2022/10/12 00:11:48;;;;;;;7.82;5.70;;;6.60;99.90;;;;;;4945364;29;20043;-77
2022/10/12 00:14:14;;;;;;;7.50;5.40;;;6.60;99.90;;;;;;4934981;29;20518;-77
2022/10/12 00:16:40;;;;;;;6.72;5.60;;;6.60;99.90;;;;;;4953111;28;20087;-77
2022/10/12 00:19:05;;;;;;;7.65;5.85;;;6.60;99.90;;;;;;4952310;29;20047;-77
2022/10/12 00:21:31;;;;;;;6.57;5.50;;;6.70;99.90;;;;;;4953848;29;20043;-77
2022/10/12 00:23:58;;;;;;;5.97;4.63;;;6.70;99.90;;;;;;4954033;29;20593;-77
2022/10/12 00:26:24;;;;;;;8.55;5.43;;;6.70;99.90;;;;;;4948732;28;20118;-77
2022/10/12 00:28:58;;;;;;;7.18;4.90;;;6.70;99.90;;;;;;4950217;29;20482;-77
2022/10/12 00:31:26;;;;;;;6.82;5.25;;;6.70;99.90;;;;;;4943498;28;20050;-77
2022/10/12 00:33:52;;;;;;;6.85;5.20;;;6.70;99.90;;;;;;4929198;29;20070;-77
2022/10/12 00:36:22;;;;;;;5.80;5.22;;;6.60;99.90;;;;;;4930844;29;20070;-77
2022/10/12 00:38:48;;;;;;;8.65;5.38;;;6.60;99.90;;;;;;4949665;29;20043;-77
2022/10/12 00:41:15;;;;;;;8.90;5.63;;;6.60;99.90;;;;;;4928958;29;20039;-77
2022/10/12 00:43:42;;;;;;;7.65;5.72;;;6.60;99.90;;;;;;4945391;29;20067;-77
2022/10/12 00:46:28;;;;;;;7.38;5.18;;;6.60;99.90;;;;;;4936914;29;20086;-77
2022/10/12 00:49:16;;;;;;;8.32;5.70;;;6.60;99.90;;;;;;4953154;29;20073;-77
2022/10/12 00:51:45;;;;;;;9.55;6.90;;;6.60;99.90;;;;;;4953397;29;20094;-77
2022/10/12 00:54:16;;;;;;;17.88;7.85;;;6.60;99.90;;;;;;4927564;29;20533;-77
2022/10/12 00:56:45;;;;;;;9.45;6.65;;;6.60;99.90;;;;;;4951587;28;20043;-76
2022/10/12 00:59:20;;;;;;;6.65;5.93;;;6.60;99.90;;;;;;4952979;29;20053;-77
2022/10/12 01:01:45;;;;;;;7.18;5.43;;;6.60;99.90;;;;;;4953219;29;20513;-76
2022/10/12 01:04:11;;;;;;;10.98;7.15;;;6.60;99.90;;;;;;4953189;29;20130;-77
2022/10/12 01:06:37;;;;;;;12.88;6.90;;;6.60;99.90;;;;;;4951431;29;20035;-76
2022/10/12 01:09:03;;;;;;;9.65;6.22;;;6.60;99.90;;;;;;4941523;28;20036;-77
2022/10/12 01:11:29;;;;;;;10.70;6.68;;;6.50;99.90;;;;;;4952775;29;20070;-76
2022/10/12 01:13:55;;;;;;;9.35;6.78;;;6.60;99.90;;;;;;4952989;29;20094;-77
2022/10/12 01:16:34;;;;;;;8.85;6.82;;;6.60;99.90;;;;;;4951224;28;20134;-76
2022/10/12 01:19:41;;;;;;;8.85;6.28;;;6.50;99.90;;;;;;4942704;29;20043;-77
2022/10/12 01:22:12;;;;;;;6.20;5.40;;;6.50;99.90;;;;;;4950786;29;20047;-76
2022/10/12 01:24:43;;;;;;;6.30;5.40;;;6.50;99.90;;;;;;4952994;29;20497;-77
2022/10/12 01:27:34;;;;;;;10.18;6.97;;;6.50;99.90;;;;;;4951782;28;20055;-77
2022/10/12 01:30:20;;;;;;;12.88;7.30;;;6.40;99.90;;;;;;4927860;29;20079;-76
2022/10/12 01:33:10;;;;;;;9.25;6.70;;;6.40;99.90;;;;;;4952969;29;20050;-77
2022/10/12 01:36:04;;;;;;;8.95;6.93;;;6.40;99.90;;;;;;4949456;29;20114;-77
2022/10/12 01:38:37;;;;;;;8.13;6.10;;;6.40;99.90;;;;;;4928232;29;20042;-77
2022/10/12 01:41:21;;;;;;;12.10;7.13;;;6.40;99.90;;;;;;4950338;29;20055;-77
2022/10/12 01:43:48;;;;;;;7.43;6.60;;;6.40;99.90;;;;;;4951977;29;20082;-77
2022/10/12 01:46:14;;;;;;;9.55;7.18;;;6.40;99.90;;;;;;4955595;28;20031;-77
2022/10/12 01:48:40;;;;;;;9.60;7.38;;;6.40;99.90;;;;;;4935825;29;20496;-77
2022/10/12 01:51:09;;;;;;;15.45;7.60;;;6.40;99.90;;;;;;4952438;29;20043;-77
2022/10/12 01:53:47;;;;;;;11.05;8.00;;;6.40;99.90;;;;;;4951409;29;20082;-77
2022/10/12 01:56:27;;;;;;;17.85;8.23;;;6.40;99.90;;;;;;4932593;29;20071;-77
2022/10/12 01:59:02;;;;;;;16.38;8.77;;;6.40;99.90;;;;;;4948162;29;20053;-77
2022/10/12 02:01:54;;;;;;;10.95;7.20;;;6.40;99.90;;;;;;4943552;29;20082;-77
2022/10/12 02:04:38;;;;;;;9.45;6.72;;;6.50;99.90;;;;;;4951307;29;20042;-76
2022/10/12 02:07:09;;;;;;;10.70;7.68;;;6.50;99.90;;;;;;4951119;29;20035;-77
2022/10/12 02:09:37;;;;;;;10.38;7.53;;;6.50;99.90;;;;;;4952517;29;20050;-77
2022/10/12 02:12:12;;;;;;;6.90;6.18;;;6.50;99.90;;;;;;4950333;28;20046;-77
2022/10/12 02:14:50;;;;;;;9.63;7.43;;;6.50;99.90;;;;;;4948918;29;20043;-77
2022/10/12 02:17:19;;;;;;;10.70;7.03;;;6.40;99.90;;;;;;4938152;28;20043;-77
2022/10/12 02:19:51;;;;;;;10.35;7.18;;;6.40;99.90;;;;;;4944594;28;20130;-77
2022/10/12 02:22:17;;;;;;;12.18;8.43;;;6.40;99.90;;;;;;4945084;29;20048;-77
2022/10/12 02:24:47;;;;;;;14.75;8.85;;;6.40;99.90;;;;;;4943512;28;20040;-77
2022/10/12 02:27:14;;;;;;;10.65;8.65;;;6.40;99.90;;;;;;4948039;28;20031;-77
2022/10/12 02:29:44;;;;;;;14.10;10.25;;;6.40;99.90;;;;;;4948745;28;20035;-77
2022/10/12 02:32:17;;;;;;;16.30;10.20;;;6.40;99.90;;;;;;4938868;29;20512;-77
2022/10/12 02:35:00;;;;;;;13.55;10.60;;;6.40;99.90;;;;;;4939248;29;20039;-77
2022/10/12 02:37:35;;;;;;;;;;;6.40;99.90;;;;;;4949429;29;20047;-77
2022/10/12 02:40:08;;;;;;;13.30;9.98;;;6.40;99.90;;;;;;4954145;29;19918;-77
2022/10/12 02:42:39;;;;;;;12.25;10.70;;;6.40;99.90;;;;;;4939726;29;20051;-77
2022/10/12 02:45:09;;;;;;;16.13;12.90;;;6.50;99.90;;;;;;4953092;28;20046;-77
2022/10/12 02:47:36;;;;;;;13.43;10.57;;;6.50;99.90;;;;;;4949983;29;20039;-77
2022/10/12 02:50:03;;;;;;;14.52;11.88;;;6.50;99.90;;;;;;4947083;29;20486;-77
2022/10/12 02:52:30;;;;;;;15.05;11.10;;;6.50;99.90;;;;;;4955831;29;20058;-77
2022/10/12 02:54:56;;;;;;;16.02;11.35;;;6.50;99.90;;;;;;4954661;29;20039;-77
2022/10/12 02:57:22;;;;;;;14.40;11.82;;;6.40;99.90;;;;;;4934321;29;20483;-77
2022/10/12 02:59:47;;;;;;;26.40;13.23;;;6.40;99.90;;;;;;4951611;29;20090;-77
2022/10/12 03:02:13;;;;;;;16.00;11.70;;;6.40;99.90;;;;;;4930675;29;20035;-77
2022/10/12 03:04:39;;;;;;;14.55;12.05;;;6.40;99.90;;;;;;4954581;28;20149;-77
2022/10/12 03:07:04;;;;;;;16.25;11.52;;;6.40;99.90;;;;;;4946453;28;20078;-76
2022/10/12 03:09:30;;;;;;;14.88;11.10;;;6.40;99.90;;;;;;4955108;29;20047;-77
2022/10/12 03:11:55;;;;;;;15.57;11.23;;;6.30;99.90;;;;;;4952381;28;20062;-76
2022/10/12 03:14:21;;;;;;;12.57;10.55;;;6.30;99.90;;;;;;4953577;29;20129;-77
2022/10/12 03:16:47;;;;;;;15.02;11.75;;;6.30;99.90;;;;;;4931161;29;20036;-77
2022/10/12 03:19:13;;;;;;;14.20;11.00;;;6.20;99.90;;;;;;4954221;29;20540;-77
2022/10/12 03:21:39;;;;;;;13.98;10.40;;;6.20;99.90;;;;;;4954915;29;20047;-77
2022/10/12 03:24:05;;;;;;;17.83;11.02;;;6.20;99.90;;;;;;4954395;28;20118;-76
2022/10/12 03:26:31;;;;;;;17.05;11.27;;;6.20;99.90;;;;;;4947757;29;20039;-76
2022/10/12 03:28:56;;;;;;;15.35;11.57;;;6.20;99.90;;;;;;4951667;29;20051;-77
2022/10/12 03:31:22;;;;;;;12.75;11.45;;;6.20;99.90;;;;;;4953948;28;20119;-77
2022/10/12 03:33:48;;;;;;;16.63;12.35;;;6.20;99.90;;;;;;4930602;29;20035;-77
2022/10/12 03:36:13;;;;;;;17.25;12.07;;;6.10;99.90;;;;;;4945577;29;20047;-77
2022/10/12 03:38:39;;;;;;;17.50;12.60;;;6.10;99.90;;;;;;4946204;29;20051;-76
2022/10/12 03:41:05;;;;;;;16.95;12.15;;;6.10;99.90;;;;;;4935710;29;20047;-77
2022/10/12 03:43:30;;;;;;;13.88;11.48;;;6.10;99.90;;;;;;4948610;29;20045;-77
2022/10/12 03:45:56;;;;;;;13.90;11.75;;;6.10;99.90;;;;;;4937377;29;20557;-76
2022/10/12 03:48:21;;;;;;;18.05;11.65;;;6.10;99.90;;;;;;4947172;29;20070;-77
2022/10/12 03:50:51;;;;;;;13.55;11.10;;;6.00;99.90;;;;;;4937909;29;20051;-77
2022/10/12 03:53:17;;;;;;;22.67;12.95;;;6.00;99.90;;;;;;4938196;29;20513;-77
2022/10/12 03:55:43;;;;;;;14.35;11.35;;;6.00;99.90;;;;;;4953812;28;20130;-77
2022/10/12 03:58:09;;;;;;;14.23;11.90;;;5.90;99.90;;;;;;4945108;28;20123;-77
2022/10/12 04:00:34;;;;;;;13.50;11.55;;;5.90;99.90;;;;;;4938326;29;20078;-77
2022/10/12 04:03:03;;;;;;;15.88;11.48;;;5.90;99.90;;;;;;4954310;29;20043;-77
2022/10/12 04:05:30;;;;;;;13.00;11.68;;;5.90;99.90;;;;;;4952463;28;20039;-76
2022/10/12 04:07:56;;;;;;;14.30;11.05;;;5.80;99.90;;;;;;4945142;29;20098;-77
2022/10/12 04:10:22;;;;;;;17.20;12.23;;;5.80;99.90;;;;;;4953229;28;20081;-77
2022/10/12 04:12:47;;;;;;;19.05;13.43;;;5.80;99.90;;;;;;4954539;28;20035;-77
2022/10/12 04:15:13;;;;;;;15.00;11.27;;;5.80;99.90;;;;;;4936848;29;20034;-77
2022/10/12 04:17:39;;;;;;;13.80;11.48;;;5.80;99.90;;;;;;4952371;28;20082;-77
2022/10/12 04:20:06;;;;;;;15.10;11.20;;;5.80;99.90;;;;;;4949952;29;20098;-76
2022/10/12 04:22:31;;;;;;;14.43;10.80;;;5.80;99.90;;;;;;4937779;29;20043;-77
2022/10/12 04:24:57;;;;;;;19.42;12.98;;;5.80;99.90;;;;;;4936307;29;20039;-77
2022/10/12 04:27:23;;;;;;;16.00;11.70;;;5.80;99.90;;;;;;4945924;28;20039;-77
2022/10/12 04:29:48;;;;;;;16.05;12.70;;;5.70;99.90;;;;;;4938022;29;20164;-77
2022/10/12 04:32:14;;;;;;;17.30;12.88;;;5.70;99.90;;;;;;4936878;29;20496;-77
2022/10/12 04:34:39;;;;;;;17.40;13.45;;;5.70;99.90;;;;;;4937213;29;20113;-76
2022/10/12 04:37:05;;;;;;;16.63;12.32;;;5.70;99.90;;;;;;4952724;29;20076;-77
2022/10/12 04:39:31;;;;;;;13.55;11.55;;;5.70;99.90;;;;;;4953003;29;20031;-76
2022/10/12 04:41:56;;;;;;;18.20;12.32;;;5.60;99.90;;;;;;4953554;29;20027;-76
2022/10/12 04:44:22;;;;;;;16.30;12.23;;;5.60;99.90;;;;;;4952495;28;20046;-77
2022/10/12 04:46:48;;;;;;;17.42;12.48;;;5.50;99.90;;;;;;4952045;28;20031;-77
2022/10/12 04:49:13;;;;;;;17.20;12.93;;;5.50;99.90;;;;;;4953436;29;20094;-77
2022/10/12 04:51:39;;;;;;;18.02;12.77;;;5.50;99.90;;;;;;4953476;29;20133;-76
2022/10/12 04:54:05;;;;;;;18.15;12.27;;;5.40;99.90;;;;;;4944517;29;20042;-76
2022/10/12 04:56:30;;;;;;;17.05;12.30;;;5.40;99.90;;;;;;4951642;29;20568;-77
2022/10/12 04:58:56;;;;;;;16.45;12.73;;;5.30;99.90;;;;;;4953041;29;20042;-77
2022/10/12 05:01:21;;;;;;;15.85;12.10;;;5.30;99.90;;;;;;4953356;29;20121;-76
2022/10/12 05:03:47;;;;;;;15.60;11.43;;;5.30;99.90;;;;;;4950000;28;20042;-76
2022/10/12 05:06:13;;;;;;;16.20;12.02;;;5.20;99.90;;;;;;4951647;28;20121;-77
2022/10/12 05:08:38;;;;;;;17.08;13.43;;;5.20;99.90;;;;;;4952963;29;20039;-76
2022/10/12 05:11:04;;;;;;;23.48;14.25;;;5.20;99.90;;;;;;4953846;29;20506;-76
2022/10/12 05:13:30;;;;;;;20.33;13.90;;;5.20;99.90;;;;;;4953231;29;20039;-77
2022/10/12 05:15:55;;;;;;;22.48;15.98;;;5.20;99.90;;;;;;4950774;29;20053;-76
2022/10/12 05:18:21;;;;;;;19.75;14.55;;;5.20;99.90;;;;;;4929081;29;20502;-76
2022/10/12 05:20:46;;;;;;;18.17;13.50;;;5.10;99.90;;;;;;4953201;29;20398;-76
2022/10/12 05:23:12;;;;;;;18.45;14.40;;;5.10;99.90;;;;;;4951830;28;20226;-76
2022/10/12 05:25:38;;;;;;;16.05;13.13;;;5.10;99.90;;;;;;4950053;28;20098;-76
2022/10/12 05:28:04;;;;;;;18.73;13.85;;;5.10;99.90;;;;;;4951593;29;20039;-76
2022/10/12 05:30:29;;;;;;;15.73;13.35;;;5.10;99.90;;;;;;4947001;28;20036;-77
2022/10/12 05:32:55;;;;;;;17.85;14.13;;;5.10;99.90;;;;;;4942402;29;20471;-77
2022/10/12 05:35:21;;;;;;;17.95;15.00;;;5.10;99.90;;;;;;4935832;29;20046;-76
2022/10/12 05:37:46;;;;;;;15.30;13.43;;;5.20;99.90;;;;;;4951419;29;20470;-76
2022/10/12 05:40:12;;;;;;;18.48;14.52;;;5.10;99.90;;;;;;4951544;29;20494;-77
2022/10/12 05:42:37;;;;;;;17.45;13.95;;;5.10;99.90;;;;;;4952757;29;20495;-76
2022/10/12 05:45:04;;;;;;;22.88;15.73;;;5.10;99.90;;;;;;4935994;29;20486;-76
2022/10/12 05:47:29;;;;;;;17.42;13.93;;;5.10;99.90;;;;;;4946621;29;20063;-76
2022/10/12 05:49:55;;;;;;;15.43;13.15;;;5.10;99.90;;;;;;4931503;29;20514;-76
2022/10/12 05:52:21;;;;;;;18.10;14.32;;;5.00;99.90;;;;;;4943170;28;20043;-76
2022/10/12 05:54:47;;;;;;;17.40;14.13;;;5.00;99.90;;;;;;4951495;28;20043;-76
2022/10/12 05:57:14;;;;;;;21.35;15.70;;;5.00;99.90;;;;;;4951677;29;20304;-76
2022/10/12 05:59:43;;;;;;;17.83;14.57;;;5.00;99.90;;;;;;4952738;29;20055;-76
2022/10/12 06:02:13;;;;;;;21.77;18.33;;;5.00;99.90;;;;;;4948260;29;20047;-76
2022/10/12 06:04:39;;;;;;;23.02;18.95;;;4.90;99.90;;;;;;4947764;28;20044;-77
2022/10/12 06:07:05;;;;;;;19.40;15.52;;;5.00;99.90;;;;;;4947567;28;20055;-76
2022/10/12 06:09:30;;;;;;;24.52;15.32;;;4.90;99.90;;;;;;4948249;29;20398;-76
2022/10/12 06:11:56;;;;;;;17.17;14.80;;;4.80;99.90;;;;;;4949994;29;20490;-77
2022/10/12 06:14:22;;;;;;;16.75;14.25;;;4.80;99.90;;;;;;4952738;29;20457;-76
2022/10/12 06:16:47;;;;;;;17.13;14.18;;;4.80;99.90;;;;;;4935868;29;20043;-76
2022/10/12 06:19:13;;;;;;;22.08;14.82;;;4.80;99.90;;;;;;4955798;28;20046;-76
2022/10/12 06:21:38;;;;;;;21.88;16.58;;;4.70;99.90;;;;;;4936270;29;20043;-77
2022/10/12 06:24:04;;;;;;;18.98;15.77;;;4.70;99.90;;;;;;4933764;29;20083;-76
2022/10/12 06:26:30;;;;;;;18.10;14.30;;;4.70;99.90;;;;;;4946430;29;20035;-75
2022/10/12 06:28:56;;;;;;;18.58;14.57;;;4.70;99.90;;;;;;4950572;29;20452;-76
2022/10/12 06:31:22;;;;;;;19.15;15.77;;;4.70;99.90;;;;;;4944621;29;20039;-76
2022/10/12 06:33:49;;;;;;;19.08;16.05;;;4.70;99.90;;;;;;4934542;29;20031;-76
2022/10/12 06:36:15;;;;;;;19.67;16.20;;;4.70;99.90;;;;;;4945336;28;20111;-76
2022/10/12 06:38:40;;;;;;;22.60;16.70;;;4.70;99.90;;;;;;4952312;29;20506;-75
2022/10/12 06:41:06;;;;;;;19.88;16.30;;;4.80;99.90;;;;;;4952038;29;20130;-76
2022/10/12 06:43:32;;;;;;;21.98;18.55;;;4.70;99.90;;;;;;4932474;29;20491;-76
2022/10/12 06:46:01;;;;;;;23.48;18.75;;;4.80;99.90;;;;;;4950631;28;20046;-76
2022/10/12 06:48:27;;;;;;;23.05;17.90;;;4.80;99.90;;;;;;4950815;28;20089;-76
2022/10/12 06:50:53;;;;;;;28.02;20.25;;;4.90;99.90;;;;;;4942688;28;20027;-75
2022/10/12 06:53:18;;;;;;;25.67;20.10;;;5.00;99.90;;;;;;4944458;29;20043;-75
2022/10/12 06:55:44;;;;;;;26.65;20.75;;;5.10;99.90;;;;;;4936133;29;20039;-76
2022/10/12 06:58:10;;;;;;;26.55;20.95;;;5.20;99.90;;;;;;4948313;29;20509;-76
2022/10/12 07:00:36;;;;;;;29.48;21.42;;;5.30;99.90;;;;;;4946594;29;20036;-76
2022/10/12 07:03:02;;;;;;;29.63;21.95;;;5.40;99.90;;;;;;4944031;29;20494;-76
2022/10/12 07:05:28;;;;;;;28.35;21.23;;;5.50;99.90;;;;;;4933959;29;20043;-76
2022/10/12 07:07:54;;;;;;;29.70;21.38;;;5.60;99.90;;;;;;4953391;28;20031;-77
2022/10/12 07:10:19;;;;;;;31.08;22.20;;;5.80;99.90;;;;;;4955179;29;20027;-76
2022/10/12 07:12:45;;;;;;;29.85;21.98;;;5.90;99.90;;;;;;4944622;29;20043;-76
2022/10/12 07:15:11;;;;;;;31.98;21.38;;;5.90;99.90;;;;;;4951835;29;20406;-75
2022/10/12 07:17:37;;;;;;;26.83;21.70;;;6.10;99.90;;;;;;4934293;29;20506;-76
2022/10/12 07:20:03;;;;;;;30.40;20.90;;;6.20;99.90;;;;;;4939954;29;20062;-76
2022/10/12 07:22:29;;;;;;;25.65;20.30;;;6.30;99.90;;;;;;4955765;29;20044;-76
2022/10/12 07:24:54;;;;;;;28.02;20.52;;;6.40;99.90;;;;;;4932062;29;20870;-76
2022/10/12 07:27:20;;;;;;;27.20;19.33;;;6.50;99.90;;;;;;4948202;29;20110;-76
2022/10/12 07:29:46;;;;;;;24.75;18.70;;;6.60;99.90;;;;;;4955993;29;20045;-75
2022/10/12 07:32:11;;;;;;;23.58;18.58;;;6.70;99.90;;;;;;4955806;29;20556;-76
2022/10/12 07:34:37;;;;;;;24.20;18.17;;;6.70;99.90;;;;;;4955167;29;20078;-76
2022/10/12 07:37:02;;;;;;;21.52;16.92;;;6.80;99.90;;;;;;4954550;29;20042;-76
2022/10/12 07:39:28;;;;;;;23.92;16.88;;;6.90;99.90;;;;;;4953961;29;20098;-76
2022/10/12 07:41:54;;;;;;;19.63;15.23;;;7.00;99.90;;;;;;4955259;29;20043;-76
2022/10/12 07:44:21;;;;;;;20.48;15.07;;;7.00;99.90;;;;;;4939703;29;20046;-76
2022/10/12 07:46:47;;;;;;;22.55;14.85;;;7.00;99.90;;;;;;4955308;29;20074;-76
2022/10/12 07:49:14;;;;;;;20.15;14.82;;;7.10;99.90;;;;;;4954372;29;20091;-76
2022/10/12 07:51:41;;;;;;;20.80;15.70;;;7.10;99.90;;;;;;4955318;29;20039;-76
2022/10/12 07:54:07;;;;;;;18.75;14.55;;;7.10;99.90;;;;;;4955317;29;20089;-76
2022/10/12 07:56:33;;;;;;;17.73;15.13;;;7.10;99.90;;;;;;4955647;29;20398;-76
2022/10/12 07:58:59;;;;;;;20.10;15.20;;;7.20;99.90;;;;;;4955134;29;20412;-76
2022/10/12 08:01:28;;;;;;;19.80;14.95;;;7.20;99.90;;;;;;4954842;29;20094;-76
2022/10/12 08:03:54;;;;;;;18.02;15.38;;;7.30;99.90;;;;;;4946036;29;20047;-76
2022/10/12 08:06:23;;;;;;;21.77;17.23;;;7.30;99.90;;;;;;4934480;29;20043;-76
2022/10/12 08:08:49;;;;;;;23.42;17.83;;;7.40;99.90;;;;;;4950387;29;20039;-76
2022/10/12 08:11:15;;;;;;;22.35;17.40;;;7.50;99.90;;;;;;4946561;29;20089;-76
2022/10/12 08:13:41;;;;;;;19.65;15.95;;;7.60;99.90;;;;;;4954649;29;20047;-76
2022/10/12 08:16:10;;;;;;;20.05;17.30;;;7.60;99.90;;;;;;4954550;29;20043;-76
2022/10/12 08:18:36;;;;;;;20.90;18.70;;;7.70;99.90;;;;;;4938331;29;20401;-76
2022/10/12 08:21:06;;;;;;;21.42;17.73;;;7.80;99.90;;;;;;4953772;29;20051;-76
2022/10/12 08:23:33;;;;;;;17.98;16.05;;;7.80;99.90;;;;;;4954386;29;20035;-76
2022/10/12 08:25:59;;;;;;;18.27;15.85;;;7.90;99.90;;;;;;4938400;29;20043;-76
2022/10/12 08:28:24;;;;;;;17.40;15.70;;;7.90;99.90;;;;;;4954060;29;20041;-76
2022/10/12 08:30:50;;;;;;;15.18;13.32;;;8.00;99.90;;;;;;4954077;29;20067;-76
2022/10/12 08:33:17;;;;;;;15.50;11.30;;;8.00;99.90;;;;;;4950076;29;20055;-76
2022/10/12 08:35:43;;;;;;;15.57;11.85;;;8.00;99.90;;;;;;4941877;29;20043;-76
2022/10/12 08:38:10;;;;;;;13.82;11.32;;;8.00;99.90;;;;;;4952606;29;20154;-76
2022/10/12 08:40:51;;;;;;;13.55;10.35;;;8.10;99.90;;;;;;4938078;29;20129;-76
2022/10/12 08:43:36;;;;;;;14.02;10.93;;;8.10;99.90;;;;;;4953807;29;20054;-77
2022/10/12 08:46:04;;;;;;;17.15;11.30;;;8.20;99.90;;;;;;4953006;29;20039;-76
2022/10/12 08:48:57;;;;;;;13.02;10.48;;;8.20;99.90;;;;;;4963600;28;20043;-76
2022/10/12 08:51:27;;;;;;;15.02;11.23;;;8.30;99.90;;;;;;4937586;29;20039;-77
2022/10/12 08:53:55;;;;;;;15.18;11.40;;;8.40;99.90;;;;;;4953654;29;20043;-76
2022/10/12 08:56:21;;;;;;;15.30;12.00;;;8.50;99.90;;;;;;4937818;29;20062;-76
2022/10/12 08:58:49;;;;;;;17.70;11.52;;;8.60;99.90;;;;;;4968949;28;20035;-76
2022/10/12 09:01:59;;;;;;;12.98;10.60;;;8.70;99.90;;;;;;4953249;29;20050;-76
2022/10/12 09:04:52;;;;;;;14.57;10.13;;;8.90;99.90;;;;;;4948667;29;20078;-76
2022/10/12 09:07:30;;;;;;;13.80;8.93;;;9.10;99.90;;;;;;4937549;29;20059;-76
2022/10/12 09:10:34;;;;;;;14.32;8.55;;;9.30;99.90;;;;;;4953211;29;20509;-76
2022/10/12 09:13:06;;;;;;;13.82;7.65;;;9.40;99.90;;;;;;4935673;29;20498;-76
2022/10/12 09:15:57;;;;;;;11.25;7.75;;;9.60;99.90;;;;;;4947364;29;20040;-76
2022/10/12 09:18:45;;;;;;;12.38;8.43;;;9.60;99.90;;;;;;4953301;29;20047;-76
2022/10/12 09:21:18;;;;;;;11.82;7.25;;;9.80;99.90;;;;;;4953352;29;20046;-76
2022/10/12 09:23:45;;;;;;;12.00;6.75;;;9.90;99.90;;;;;;4929582;29;20027;-76
2022/10/12 09:26:40;;;;;;;10.30;6.80;;;10.00;99.90;;;;;;4948982;29;20087;-76
2022/10/12 09:29:27;;;;;;;8.68;7.20;;;10.20;99.90;;;;;;4949724;29;20051;-77
2022/10/12 09:32:11;;;;;;;9.95;6.25;;;10.40;99.90;;;;;;4953617;29;20397;-76
2022/10/12 09:34:37;;;;;;;10.48;6.32;;;10.50;99.90;;;;;;4927864;29;20042;-76
2022/10/12 09:37:04;;;;;;;9.43;5.80;;;10.70;99.90;;;;;;4945068;29;20057;-76
2022/10/12 09:39:36;;;;;;;8.30;5.65;;;10.90;99.90;;;;;;4953273;29;20051;-76
2022/10/12 09:42:02;;;;;;;8.65;5.45;;;11.10;99.90;;;;;;4936968;29;20047;-77
2022/10/12 09:44:39;;;;;;;9.35;5.45;;;11.20;99.90;;;;;;4928249;29;20094;-76
2022/10/12 09:47:28;;;;;;;13.05;5.93;;;11.30;99.90;;;;;;4936843;29;20071;-76
2022/10/12 09:49:59;;;;;;;9.02;4.72;;;11.30;99.90;;;;;;4953296;29;20043;-76
2022/10/12 09:52:34;;;;;;;7.35;4.88;;;11.60;99.90;;;;;;4953032;29;20043;-77
2022/10/12 09:55:00;;;;;;;7.22;4.40;;;11.70;99.90;;;;;;4942542;29;20106;-77
2022/10/12 09:57:35;;;;;;;8.55;4.10;;;11.80;99.90;;;;;;4936616;29;20041;-76
2022/10/12 10:00:07;;;;;;;8.32;4.75;;;11.80;99.90;;;;;;4934537;29;20130;-75
2022/10/12 10:02:46;;;;;;;7.35;3.85;;;12.00;99.90;;;;;;4950177;29;20051;-75
2022/10/12 10:05:41;;;;;;;8.15;4.40;;;12.00;99.90;;;;;;4947330;29;20046;-75
2022/10/12 10:08:22;;;;;;;5.35;3.90;;;12.10;99.90;;;;;;4942914;29;20383;-77
2022/10/12 10:10:50;;;;;;;9.63;4.57;;;12.20;99.90;;;;;;4951531;29;20035;-77
2022/10/12 10:13:16;;;;;;;10.02;3.75;;;12.30;99.90;;;;;;4932453;29;20031;-77
2022/10/12 10:15:46;;;;;;;10.80;3.88;;;12.40;99.90;;;;;;4931728;29;20430;-77
2022/10/12 10:18:20;;;;;;;7.15;3.42;;;12.60;99.90;;;;;;4944043;29;20066;-77
2022/10/12 10:20:53;;;;;;;7.40;3.70;;;12.70;99.90;;;;;;4944361;29;20039;-77
2022/10/12 10:23:23;;;;;;;9.70;3.45;;;12.90;99.90;;;;;;4936562;29;20047;-77
2022/10/12 10:25:58;;;;;;;5.65;3.33;;;13.10;99.90;;;;;;4952318;29;20043;-77
2022/10/12 10:28:28;;;;;;;7.90;3.42;;;13.40;99.90;;;;;;4945079;29;20057;-77
2022/10/12 10:31:21;;;;;;;6.82;3.13;;;13.50;99.90;;;;;;4934651;29;20039;-77
2022/10/12 10:34:15;;;;;;;6.30;2.97;;;13.80;99.90;;;;;;4943887;29;20187;-77
2022/10/12 10:36:59;;;;;;;7.70;2.72;;;13.90;99.90;;;;;;4950789;29;20066;-77
2022/10/12 10:39:46;;;;;;;9.77;3.65;;;14.00;99.90;;;;;;4949449;29;20070;-77
2022/10/12 10:42:33;;;;;;;7.72;2.95;;;14.10;99.90;;;;;;4955295;28;20081;-77
2022/10/12 10:45:32;;;;;;;8.38;3.30;;;14.20;99.90;;;;;;4956389;29;20042;-76
2022/10/12 10:48:21;;;;;;;9.25;3.28;;;14.30;99.90;;;;;;4951438;29;20054;-77
2022/10/12 10:50:55;;;;;;;9.45;2.90;;;14.50;99.90;;;;;;4948152;28;20119;-77
2022/10/12 10:53:23;;;;;;;6.20;2.83;;;14.60;99.90;;;;;;4950257;28;20031;-78
2022/10/12 10:56:06;;;;;;;6.57;2.95;;;14.70;99.90;;;;;;4952705;28;20050;-78
2022/10/12 10:58:50;;;;;;;6.97;2.63;;;14.90;99.90;;;;;;4933613;29;20491;-79
2022/10/12 11:01:38;;;;;;;6.50;2.95;;;15.00;99.90;;;;;;4944760;29;20039;-79
2022/10/12 11:04:16;;;;;;;4.78;2.08;;;15.00;99.90;;;;;;4954274;29;20545;-79
2022/10/12 11:06:46;;;;;;;5.93;2.50;;;15.10;99.90;;;;;;4954715;29;20043;-79
2022/10/12 11:09:31;;;;;;;6.82;2.60;;;15.20;99.90;;;;;;4955556;29;20134;-79
2022/10/12 11:12:06;;;;;;;6.15;2.70;;;15.30;99.90;;;;;;4976372;23;20054;-77
2022/10/12 11:14:55;;;;;;;5.55;2.30;;;15.40;99.90;;;;;;4946001;29;20038;-77
2022/10/12 11:17:30;;;;;;;5.15;2.58;;;15.60;99.90;;;;;;4932934;29;20554;-77
2022/10/12 11:20:20;;;;;;;6.47;2.80;;;15.70;99.90;;;;;;4938652;29;20082;-77
2022/10/12 11:22:51;;;;;;;7.63;2.25;;;15.90;99.90;;;;;;4932344;29;20055;-77
2022/10/12 11:25:38;;;;;;;9.38;2.60;;;15.90;99.90;;;;;;4920325;29;20402;-77
2022/10/12 11:28:06;;;;;;;7.00;2.08;;;16.00;99.90;;;;;;4935858;29;20036;-77
2022/10/12 11:30:40;;;;;;;4.47;2.45;;;16.20;99.90;;;;;;4911573;29;20062;-77
2022/10/12 11:33:14;;;;;;;5.97;3.00;;;16.50;99.90;;;;;;4919927;29;20391;-77
2022/10/12 11:35:44;;;;;;;6.45;2.47;;;16.90;99.90;;;;;;4928041;29;20489;-77
2022/10/12 11:38:19;;;;;;;6.25;2.92;;;17.30;99.90;;;;;;4918103;29;20080;-77
2022/10/12 11:41:08;;;;;;;6.20;3.03;;;17.60;99.90;;;;;;4908275;29;20050;-77
2022/10/12 11:44:05;;;;;;;5.82;2.78;;;17.70;95.20;;;;;;4929450;29;20047;-77
2022/10/12 11:46:35;;;;;;;6.57;3.20;;;17.70;94.70;;;;;;4913778;29;20036;-78
2022/10/12 11:49:25;;;;;;;5.97;2.83;;;17.60;93.70;;;;;;4916233;29;20088;-80
2022/10/12 11:51:55;;;;;;;6.43;3.00;;;17.50;92.90;;;;;;4928463;29;20047;-77
2022/10/12 11:54:31;;;;;;;8.15;3.10;;;17.40;95.80;;;;;;4930139;29;20040;-77
2022/10/12 11:57:02;;;;;;;7.55;3.63;;;17.30;94.20;;;;;;4914504;29;20134;-77
2022/10/12 11:59:41;;;;;;;8.60;3.38;;;17.20;94.90;;;;;;4925648;29;20404;-78
2022/10/12 12:02:17;;;;;;;8.80;3.53;;;17.20;95.20;;;;;;4910643;29;20087;-77
2022/10/12 12:04:45;;;;;;;6.53;3.78;;;17.10;96.10;;;;;;4931950;29;20074;-79
2022/10/12 12:07:36;;;;;;;7.30;3.25;;;16.90;92.40;;;;;;4931365;29;20448;-79
2022/10/12 12:10:33;;;;;;;7.38;3.72;;;16.90;98.10;;;;;;4933185;29;20044;-78
2022/10/12 12:13:06;;;;;;;7.22;3.72;;;17.00;95.20;;;;;;4921018;29;20043;-78
2022/10/12 12:15:32;;;;;;;6.78;3.40;;;16.90;95.60;;;;;;4902437;29;20048;-78
2022/10/12 12:18:10;;;;;;;4.80;3.30;;;16.90;93.80;;;;;;4919447;29;20047;-78
2022/10/12 12:20:42;;;;;;;7.05;3.60;;;16.90;95.10;;;;;;4926970;29;20047;-78
2022/10/12 12:23:23;;;;;;;5.75;3.50;;;16.90;95.10;;;;;;4919951;29;20036;-78
2022/10/12 12:26:10;;;;;;;10.60;3.97;;;16.80;97.10;;;;;;4952584;29;20126;-77
2022/10/12 12:28:48;;;;;;;5.82;3.67;;;16.80;94.00;;;;;;4919813;29;20044;-78
2022/10/12 12:31:23;;;;;;;8.15;4.00;;;16.70;94.30;;;;;;4924695;29;20047;-78
2022/10/12 12:34:19;;;;;;;7.10;4.03;;;16.60;94.80;;;;;;4929557;29;20048;-77
2022/10/12 12:36:48;;;;;;;9.32;4.00;;;16.50;97.90;;;;;;4916617;29;20044;-77
2022/10/12 12:39:22;;;;;;;7.18;3.67;;;16.40;99.10;;;;;;4935169;29;20039;-78
2022/10/12 12:41:54;;;;;;;7.40;3.45;;;16.40;97.60;;;;;;4933941;29;20103;-78
2022/10/12 12:44:42;;;;;;;9.00;4.22;;;16.40;97.40;;;;;;4919477;29;20087;-78
2022/10/12 12:47:08;;;;;;;9.27;3.92;;;16.50;94.70;;;;;;4906024;29;20055;-78
2022/10/12 12:49:37;;;;;;;7.90;3.92;;;16.40;95.90;;;;;;4907421;29;20036;-78
2022/10/12 12:52:19;;;;;;;9.10;4.47;;;16.60;96.70;;;;;;4925810;29;20059;-78
2022/10/12 12:55:12;;;;;;;7.60;4.40;;;16.80;96.10;;;;;;4932163;29;20505;-81
2022/10/12 12:57:53;;;;;;;7.75;4.00;;;17.00;95.30;;;;;;4920327;29;20178;-77
2022/10/12 13:00:58;;;;;;;7.38;4.57;;;17.00;92.90;;;;;;4915685;29;20067;-77
2022/10/12 13:03:38;;;;;;;9.73;4.22;;;17.00;94.30;;;;;;4935333;29;20062;-76
2022/10/12 13:06:10;;;;;;;7.57;4.20;;;16.90;94.20;;;;;;4929053;29;20044;-78